Time;durP1;ratioP1;P1;durP2;ratioP2;P2;SDS_P1;SDS_P2;PMS_P1;PMS_P2;Temp;Humidity;BMP_temperature;BMP_pressure;BME280_temperature;BME280_humidity;BME280_pressure;Samples;Min_cycle;Max_cycle;Signal;HPM_P1;HPM_P2
2023/10/16 00:01:31;;;;;;;;;;;14.30;51.60;;;;;;5007542;28;114821;-81
2023/10/16 00:04:00;;;;;;;;;;;14.40;51.70;;;;;;5007123;28;116097;-80
2023/10/16 00:06:28;;;;;;;;;;;14.40;51.60;;;;;;5007844;28;114173;-82
2023/10/16 00:09:14;;;;;;;;;;;14.40;51.70;;;;;;5008285;28;114438;-81
2023/10/16 00:11:42;;;;;;;;;;;14.40;51.60;;;;;;5005565;28;114858;-82
2023/10/16 00:14:26;;;;;;;;;;;14.40;51.60;;;;;;5006994;28;114660;-80
2023/10/16 00:16:53;;;;;;;;;;;14.30;51.30;;;;;;5007188;28;114202;-81
2023/10/16 00:19:20;;;;;;;;;;;14.20;50.50;;;;;;5006229;28;114352;-80
2023/10/16 00:21:47;;;;;;;;;;;14.00;51.10;;;;;;5006805;28;114890;-81
2023/10/16 00:24:15;;;;;;;;;;;14.00;50.90;;;;;;5006742;28;114593;-81
2023/10/16 00:26:50;;;;;;;;;;;13.90;51.00;;;;;;5007319;28;114470;-80
2023/10/16 00:29:19;;;;;;;;;;;13.90;51.30;;;;;;5009547;28;114094;-81
2023/10/16 00:31:51;;;;;;;;;;;13.90;51.30;;;;;;5009943;28;114272;-81
2023/10/16 00:34:21;;;;;;;;;;;14.00;51.30;;;;;;5008209;28;114493;-81
2023/10/16 00:36:54;;;;;;;;;;;14.00;51.30;;;;;;5007236;28;114462;-81
2023/10/16 00:39:22;;;;;;;;;;;14.10;51.40;;;;;;5006496;28;114376;-81
2023/10/16 00:41:50;;;;;;;;;;;14.00;51.40;;;;;;5006456;28;114814;-81
2023/10/16 00:44:17;;;;;;;;;;;14.10;51.40;;;;;;5007426;28;114619;-81
2023/10/16 00:46:48;;;;;;;;;;;14.10;51.40;;;;;;5006912;28;114574;-81
2023/10/16 00:49:18;;;;;;;;;;;14.10;51.30;;;;;;5007009;28;114306;-82
2023/10/16 00:51:46;;;;;;;;;;;14.10;51.40;;;;;;5006843;28;115514;-80
2023/10/16 00:54:18;;;;;;;;;;;14.10;51.40;;;;;;5006032;28;114824;-81
2023/10/16 00:56:49;;;;;;;;;;;14.10;51.40;;;;;;5007716;28;114210;-82
2023/10/16 00:59:16;;;;;;;;;;;14.10;51.50;;;;;;5007899;28;114360;-81
2023/10/16 01:01:44;;;;;;;;;;;14.10;51.50;;;;;;4972520;28;117148;-81
2023/10/16 01:04:12;;;;;;;;;;;14.10;51.40;;;;;;5005441;28;114336;-80
2023/10/16 01:06:41;;;;;;;;;;;14.10;51.40;;;;;;5005756;28;114066;-81
2023/10/16 01:09:08;;;;;;;;;;;14.00;51.40;;;;;;5006573;28;114368;-81
2023/10/16 01:11:38;;;;;;;;;;;14.00;51.40;;;;;;5006991;27;116027;-80
2023/10/16 01:14:06;;;;;;;;;;;14.00;51.30;;;;;;5005151;28;114723;-81
2023/10/16 01:16:33;;;;;;;;;;;13.90;51.30;;;;;;5007401;28;114378;-80
2023/10/16 01:19:01;;;;;;;;;;;13.90;51.40;;;;;;5006552;28;114213;-82
2023/10/16 01:21:28;;;;;;;;;;;13.90;51.50;;;;;;5005155;28;114234;-79
2023/10/16 01:23:55;;;;;;;;;;;14.00;51.50;;;;;;5006435;28;114619;-80
2023/10/16 01:26:24;;;;;;;;;;;14.00;51.50;;;;;;5006803;28;114417;-81
2023/10/16 01:28:54;;;;;;;;;;;14.00;51.50;;;;;;5005874;28;114147;-79
2023/10/16 01:31:21;;;;;;;;;;;14.00;51.50;;;;;;5005315;28;115000;-81
2023/10/16 01:33:51;;;;;;;;;;;14.00;51.40;;;;;;5004502;28;114985;-81
2023/10/16 01:36:18;;;;;;;;;;;14.00;51.40;;;;;;5006659;28;114291;-81
2023/10/16 01:38:45;;;;;;;;;;;14.00;51.10;;;;;;5005696;28;114474;-81
2023/10/16 01:41:15;;;;;;;;;;;14.00;51.10;;;;;;5005650;28;114831;-82
2023/10/16 01:43:43;;;;;;;;;;;13.90;51.20;;;;;;5005669;28;114631;-82
2023/10/16 01:46:11;;;;;;;;;;;13.90;51.30;;;;;;4998873;28;114631;-82
2023/10/16 01:48:40;;;;;;;;;;;13.90;51.10;;;;;;5005813;28;114215;-82
2023/10/16 01:51:09;;;;;;;;;;;13.90;51.10;;;;;;5005310;28;114782;-81
2023/10/16 01:53:39;;;;;;;;;;;13.80;51.10;;;;;;5009203;28;114686;-81
2023/10/16 01:56:12;;;;;;;;;;;13.90;51.20;;;;;;5008339;28;114240;-81
2023/10/16 01:58:41;;;;;;;;;;;13.90;51.20;;;;;;4992200;28;114391;-81
2023/10/16 02:01:09;;;;;;;;;;;13.90;51.30;;;;;;5007832;28;114910;-82
2023/10/16 02:03:38;;;;;;;;;;;13.90;51.20;;;;;;5007584;28;114787;-81
2023/10/16 02:06:05;;;;;;;;;;;13.90;50.80;;;;;;4991878;28;114404;-81
2023/10/16 02:08:32;;;;;;;;;;;13.80;51.10;;;;;;5008637;28;114317;-82
2023/10/16 02:10:59;;;;;;;;;;;13.80;51.30;;;;;;5008661;28;114944;-81
2023/10/16 02:13:26;;;;;;;;;;;13.80;51.20;;;;;;5008954;28;114706;-81
2023/10/16 02:15:54;;;;;;;;;;;13.90;51.20;;;;;;5008576;28;114423;-82
2023/10/16 02:18:27;;;;;;;;;;;13.80;51.10;;;;;;5012462;28;114275;-81
2023/10/16 02:20:55;;;;;;;;;;;13.80;51.10;;;;;;5008165;28;115113;-81
2023/10/16 02:23:22;;;;;;;;;;;13.90;51.20;;;;;;4958535;28;117270;-81
2023/10/16 02:25:49;;;;;;;;;;;13.90;51.10;;;;;;5008803;28;114434;-82
2023/10/16 02:28:19;;;;;;;;;;;13.80;51.10;;;;;;5008539;28;114196;-82
2023/10/16 02:30:49;;;;;;;;;;;13.90;51.10;;;;;;5007835;28;114957;-82
2023/10/16 02:33:26;;;;;;;;;;;13.90;51.10;;;;;;5008909;28;114610;-81
2023/10/16 02:35:54;;;;;;;;;;;13.80;51.20;;;;;;5009652;28;114081;-82
2023/10/16 02:38:24;;;;;;;;;;;13.80;51.20;;;;;;5010060;28;114297;-81
2023/10/16 02:40:53;;;;;;;;;;;13.80;51.00;;;;;;5008118;28;117683;-82
2023/10/16 02:43:20;;;;;;;;;;;13.80;51.10;;;;;;5009092;28;114606;-81
2023/10/16 02:45:51;;;;;;;;;;;13.80;51.20;;;;;;5007876;28;114276;-80
2023/10/16 02:48:19;;;;;;;;;;;13.90;51.00;;;;;;4992582;28;114363;-81
2023/10/16 02:50:49;;;;;;;;;;;13.80;50.80;;;;;;4974676;28;115016;-81
2023/10/16 02:53:21;;;;;;;;;;;13.80;50.80;;;;;;4990652;28;117113;-80
2023/10/16 02:55:49;;;;;;;;;;;13.70;51.00;;;;;;5007990;28;114283;-83
2023/10/16 02:58:18;;;;;;;;;;;13.70;50.80;;;;;;5009750;28;114547;-81
2023/10/16 03:00:49;;;;;;;;;;;13.70;50.80;;;;;;5008704;28;114878;-81
2023/10/16 03:03:17;;;;;;;;;;;13.70;51.00;;;;;;5008530;28;114895;-82
2023/10/16 03:05:45;;;;;;;;;;;13.70;50.90;;;;;;5008702;28;114514;-82
2023/10/16 03:08:13;;;;;;;;;;;13.70;50.70;;;;;;5008434;28;114477;-82
2023/10/16 03:10:40;;;;;;;;;;;13.60;50.60;;;;;;4990120;28;118132;-81
2023/10/16 03:13:07;;;;;;;;;;;13.60;50.80;;;;;;5007521;28;114532;-81
2023/10/16 03:15:45;;;;;;;;;;;13.60;50.70;;;;;;5009679;28;114475;-81
2023/10/16 03:18:22;;;;;;;;;;;13.60;51.10;;;;;;5009166;28;114308;-80
2023/10/16 03:21:00;;;;;;;;;;;13.70;51.20;;;;;;5007288;28;114894;-80
2023/10/16 03:23:28;;;;;;;;;;;13.70;51.10;;;;;;5007984;28;114858;-81
2023/10/16 03:25:59;;;;;;;;;;;13.70;51.10;;;;;;5008881;28;114248;-80
2023/10/16 03:28:26;;;;;;;;;;;13.80;51.10;;;;;;5007876;28;114300;-81
2023/10/16 03:30:58;;;;;;;;;;;13.80;51.00;;;;;;5007855;28;115324;-81
2023/10/16 03:33:25;;;;;;;;;;;13.80;50.90;;;;;;5006701;28;114733;-81
2023/10/16 03:35:53;;;;;;;;;;;13.70;50.90;;;;;;5007708;28;114469;-81
2023/10/16 03:38:24;;;;;;;;;;;13.80;51.10;;;;;;5008754;28;114127;-81
2023/10/16 03:40:52;;;;;;;;;;;13.80;51.00;;;;;;5007555;28;115299;-80
2023/10/16 03:43:22;;;;;;;;;;;13.80;50.80;;;;;;5007453;28;115132;-82
2023/10/16 03:45:49;;;;;;;;;;;13.70;50.90;;;;;;5006878;28;114439;-82
2023/10/16 03:48:17;;;;;;;;;;;13.70;50.70;;;;;;4973546;28;114739;-81
2023/10/16 03:50:44;;;;;;;;;;;13.70;50.90;;;;;;5007333;28;114929;-81
2023/10/16 03:53:13;;;;;;;;;;;13.70;50.80;;;;;;4989551;28;117288;-80
2023/10/16 03:55:41;;;;;;;;;;;13.70;50.80;;;;;;4990634;28;114379;-81
2023/10/16 03:58:08;;;;;;;;;;;13.70;50.50;;;;;;5008014;28;114214;-82
2023/10/16 04:03:23;;;;;;;;;;;13.70;51.10;;;;;;5005794;28;114791;-81
2023/10/16 04:05:50;;;;;;;;;;;13.70;51.00;;;;;;5010133;28;114263;-80
2023/10/16 04:08:21;;;;;;;;;;;13.70;50.70;;;;;;5008165;28;114340;-81
2023/10/16 04:10:49;;;;;;;;;;;13.70;50.70;;;;;;5005650;28;115202;-81
2023/10/16 04:13:16;;;;;;;;;;;13.70;51.00;;;;;;5006168;28;114502;-82
2023/10/16 04:21:37;;;;;;;;;;;13.60;50.60;;;;;;5007045;28;114881;-81
2023/10/16 04:23:57;;;;;;;;;;;13.60;50.80;;;;;;5005755;28;114653;-81
2023/10/16 04:31:57;;;;;;;;;;;13.60;50.80;;;;;;5006757;28;115565;-81
2023/10/16 04:37:29;;;;;;;;;;;13.60;50.50;;;;;;5006839;28;114327;-81
2023/10/16 04:50:30;;;;;;;;;;;13.50;50.50;;;;;;5008189;28;114134;-80
2023/10/16 04:53:25;;;;;;;;;;;13.50;50.70;;;;;;5006574;28;115839;-81
2023/10/16 04:55:54;;;;;;;;;;;13.50;50.80;;;;;;5022542;28;114467;-81
2023/10/16 05:13:17;;;;;;;;;;;13.60;50.80;;;;;;5006591;28;114353;-81
2023/10/16 05:19:44;;;;;;;;;;;13.50;50.70;;;;;;5015537;28;114319;-82
2023/10/16 06:14:45;;;;;;;;;;;13.40;50.10;;;;;;5010703;28;114544;-81
2023/10/16 06:17:18;;;;;;;;;;;13.40;50.40;;;;;;5018508;28;114475;-82
2023/10/16 06:19:45;;;;;;;;;;;13.40;50.60;;;;;;5030326;28;117187;-82
2023/10/16 06:22:12;;;;;;;;;;;13.40;50.50;;;;;;5028446;28;115561;-83
2023/10/16 06:24:44;;;;;;;;;;;13.50;49.90;;;;;;5018843;27;114250;-81
2023/10/16 06:27:18;;;;;;;;;;;13.40;50.30;;;;;;5032577;27;114139;-82
2023/10/16 06:29:53;;;;;;;;;;;13.40;50.30;;;;;;5032157;28;114881;-82
2023/10/16 06:32:22;;;;;;;;;;;13.40;50.10;;;;;;5030409;27;116563;-82
2023/10/16 06:34:50;;;;;;;;;;;13.40;50.40;;;;;;5031959;28;114375;-81
2023/10/16 06:37:17;;;;;;;;;;;13.30;49.80;;;;;;5030121;28;114014;-82
2023/10/16 06:39:47;;;;;;;;;;;13.30;50.10;;;;;;5026699;28;115363;-81
2023/10/16 06:42:20;;;;;;;;;;;13.30;49.90;;;;;;5017182;28;114671;-81
2023/10/16 06:44:53;;;;;;;;;;;13.20;50.00;;;;;;5029635;28;114483;-81
2023/10/16 06:47:34;;;;;;;;;;;13.30;50.20;;;;;;5020296;27;114249;-81
2023/10/16 06:50:32;;;;;;;;;;;13.20;50.00;;;;;;5017410;28;116214;-80
2023/10/16 06:52:51;;;;;;;;;;;13.20;50.20;;;;;;5022456;28;114542;-82
2023/10/16 06:55:18;;;;;;;;;;;13.30;50.20;;;;;;5029635;28;114220;-83
2023/10/16 06:57:46;;;;;;;;;;;13.30;50.20;;;;;;5015801;27;114658;-80
2023/10/16 07:00:25;;;;;;;;;;;13.30;50.30;;;;;;5026442;28;114858;-82
2023/10/16 07:02:56;;;;;;;;;;;13.40;49.90;;;;;;5001557;28;114608;-82
2023/10/16 07:05:24;;;;;;;;;;;13.30;50.20;;;;;;5007375;28;114252;-82
2023/10/16 07:07:56;;;;;;;;;;;13.30;50.00;;;;;;5007727;28;114599;-82
2023/10/16 07:10:25;;;;;;;;;;;13.30;50.10;;;;;;5006858;28;115041;-83
2023/10/16 07:12:58;;;;;;;;;;;13.30;50.00;;;;;;5017237;28;114602;-82
2023/10/16 07:15:28;;;;;;;;;;;13.30;50.10;;;;;;5024480;28;114503;-82
2023/10/16 07:17:55;;;;;;;;;;;13.30;49.50;;;;;;5007558;28;114355;-82
2023/10/16 07:20:29;;;;;;;;;;;13.20;49.60;;;;;;5007630;27;116449;-82
2023/10/16 07:22:59;;;;;;;;;;;13.20;49.70;;;;;;5006765;28;115723;-82
2023/10/16 07:25:37;;;;;;;;;;;13.10;49.80;;;;;;5012733;28;114143;-83
2023/10/16 07:28:08;;;;;;;;;;;13.20;50.00;;;;;;5026770;28;114384;-82
2023/10/16 07:30:36;;;;;;;;;;;13.30;50.20;;;;;;5004629;28;115587;-82
2023/10/16 07:33:03;;;;;;;;;;;13.30;50.00;;;;;;5010606;28;114802;-82
2023/10/16 07:35:30;;;;;;;;;;;13.30;50.20;;;;;;5012421;28;114339;-82
2023/10/16 07:37:58;;;;;;;;;;;13.40;50.20;;;;;;5023519;28;114416;-82
2023/10/16 07:40:25;;;;;;;;;;;13.40;50.30;;;;;;5016193;28;116378;-81
2023/10/16 07:42:53;;;;;;;;;;;13.50;50.20;;;;;;5026783;28;114586;-82
2023/10/16 07:45:20;;;;;;;;;;;13.50;50.30;;;;;;5030107;27;114256;-82
2023/10/16 07:47:48;;;;;;;;;;;13.50;50.40;;;;;;5022741;27;114338;-82
2023/10/16 07:50:16;;;;;;;;;;;13.60;50.40;;;;;;5017396;28;115412;-82
2023/10/16 07:52:43;;;;;;;;;;;13.60;50.30;;;;;;5006443;28;115195;-82
2023/10/16 07:55:27;;;;;;;;;;;13.70;50.20;;;;;;5007715;28;114303;-81
2023/10/16 07:57:54;;;;;;;;;;;13.70;50.10;;;;;;5007345;28;114423;-83
2023/10/16 08:00:25;;;;;;;;;;;13.70;50.20;;;;;;5007726;28;114879;-82
2023/10/16 08:03:04;;;;;;;;;;;13.70;49.80;;;;;;5034624;27;115118;-83
2023/10/16 08:05:33;;;;;;;;;;;13.60;50.00;;;;;;5024080;28;114241;-81
2023/10/16 08:08:00;;;;;;;;;;;13.70;50.20;;;;;;4989986;28;114359;-82
2023/10/16 08:10:43;;;;;;;;;;;13.70;50.00;;;;;;5007095;28;115193;-82
2023/10/16 08:13:13;;;;;;;;;;;13.70;49.90;;;;;;5007161;28;115097;-81
2023/10/16 08:15:44;;;;;;;;;;;13.70;50.00;;;;;;5007184;28;114475;-83
2023/10/16 08:18:12;;;;;;;;;;;13.70;49.80;;;;;;5017703;28;114669;-83
2023/10/16 08:20:49;;;;;;;;;;;13.70;50.00;;;;;;5005057;28;114921;-83
2023/10/16 08:23:16;;;;;;;;;;;13.70;49.60;;;;;;5005052;28;114715;-83
2023/10/16 08:25:47;;;;;;;;;;;13.70;49.50;;;;;;4989908;28;114323;-83
2023/10/16 08:28:21;;;;;;;;;;;13.60;49.40;;;;;;5006228;28;114236;-83
2023/10/16 08:33:16;;;;;;;;;;;13.50;49.30;;;;;;5005360;28;114528;-83
2023/10/16 08:35:45;;;;;;;;;;;13.50;49.40;;;;;;5007223;28;114360;-83
2023/10/16 08:38:20;;;;;;;;;;;13.60;49.60;;;;;;5007346;28;114211;-83
2023/10/16 08:41:07;;;;;;;;;;;13.60;49.60;;;;;;5006370;28;118139;-83
2023/10/16 08:43:53;;;;;;;;;;;13.70;49.60;;;;;;5021561;28;114775;-83
2023/10/16 08:46:30;;;;;;;;;;;13.70;49.50;;;;;;5005052;27;114607;-83
2023/10/16 08:49:02;;;;;;;;;;;13.70;49.70;;;;;;5012307;28;115710;-82
2023/10/16 08:51:30;;;;;;;;;;;13.70;49.50;;;;;;5014984;28;114772;-83
2023/10/16 08:54:05;;;;;;;;;;;13.70;49.30;;;;;;5008235;28;115325;-82
2023/10/16 08:56:32;;;;;;;;;;;13.70;48.80;;;;;;5006759;28;115895;-82
2023/10/16 08:59:01;;;;;;;;;;;13.50;48.60;;;;;;5006863;28;114207;-83
2023/10/16 09:01:28;;;;;;;;;;;13.50;48.60;;;;;;5018377;28;114851;-83
2023/10/16 09:04:05;;;;;;;;;;;13.40;48.80;;;;;;4992748;28;117866;-85
2023/10/16 09:06:34;;;;;;;;;;;13.50;48.50;;;;;;5006632;28;114135;-83
2023/10/16 09:09:03;;;;;;;;;;;13.40;48.90;;;;;;5008677;28;114381;-83
2023/10/16 09:11:30;;;;;;;;;;;13.50;48.50;;;;;;5008242;28;116762;-84
2023/10/16 09:13:59;;;;;;;;;;;13.30;47.60;;;;;;5007994;28;114766;-83
2023/10/16 09:16:31;;;;;;;;;;;13.20;48.00;;;;;;5026046;27;114285;-83
2023/10/16 09:18:59;;;;;;;;;;;13.20;48.50;;;;;;5025928;28;114337;-81
2023/10/16 09:21:29;;;;;;;;;;;13.40;48.30;;;;;;5026536;28;115910;-85
2023/10/16 09:24:02;;;;;;;;;;;13.40;48.20;;;;;;5024555;28;118254;-82
2023/10/16 09:26:37;;;;;;;;;;;13.50;48.40;;;;;;4993519;28;114169;-84
2023/10/16 09:29:05;;;;;;;;;;;13.60;48.20;;;;;;5026647;28;114246;-82
2023/10/16 09:31:32;;;;;;;;;;;13.60;48.10;;;;;;5016691;28;114954;-83
2023/10/16 09:34:00;;;;;;;;;;;13.60;47.90;;;;;;5010394;28;115666;-84
2023/10/16 09:36:29;;;;;;;;;;;13.40;47.80;;;;;;5005378;28;114572;-85
2023/10/16 09:38:59;;;;;;;;;;;13.40;48.00;;;;;;5006950;28;114657;-83
2023/10/16 09:46:52;;;;;;;;;;;13.70;48.40;;;;;;5003524;28;114649;-84
2023/10/16 09:49:24;;;;;;;;;;;13.70;48.40;;;;;;5005439;28;114381;-82
2023/10/16 09:52:04;;;;;;;;;;;13.80;48.10;;;;;;5006395;28;114878;-83
2023/10/16 09:54:35;;;;;;;;;;;13.80;48.30;;;;;;5019889;28;118099;-83
2023/10/16 09:57:06;;;;;;;;;;;13.90;48.50;;;;;;5022171;28;115742;-83
2023/10/16 09:59:38;;;;;;;;;;;14.00;48.40;;;;;;5008912;28;114526;-83
2023/10/16 10:02:09;;;;;;;;;;;14.00;48.30;;;;;;5023737;28;115087;-82
2023/10/16 10:04:38;;;;;;;;;;;14.10;48.10;;;;;;5020510;28;115456;-82
2023/10/16 10:07:11;;;;;;;;;;;13.90;47.40;;;;;;5006152;28;114522;-83
2023/10/16 10:09:42;;;;;;;;;;;13.80;47.60;;;;;;5024144;27;114498;-83
2023/10/16 10:12:28;;;;;;;;;;;13.70;47.10;;;;;;5011380;28;117414;-84
2023/10/16 10:15:15;;;;;;;;;;;13.70;47.80;;;;;;5009663;28;115091;-82
2023/10/16 10:17:43;;;;;;;;;;;13.80;47.90;;;;;;5009077;28;114566;-83
2023/10/16 10:20:32;;;;;;;;;;;13.90;47.30;;;;;;5014786;28;114351;-84
2023/10/16 10:23:05;;;;;;;;;;;13.90;47.50;;;;;;5009421;28;115328;-82
2023/10/16 10:25:37;;;;;;;;;;;13.90;47.60;;;;;;5008424;28;114541;-84
2023/10/16 10:28:15;;;;;;;;;;;13.90;47.70;;;;;;5008819;28;114036;-82
2023/10/16 10:30:43;;;;;;;;;;;13.80;47.40;;;;;;5009281;28;114154;-84
2023/10/16 10:33:13;;;;;;;;;;;13.80;47.70;;;;;;5015116;28;116322;-83
2023/10/16 10:35:43;;;;;;;;;;;13.80;47.80;;;;;;5006844;28;114859;-84
2023/10/16 10:38:29;;;;;;;;;;;13.80;47.90;;;;;;5009447;28;114284;-81
2023/10/16 10:41:15;;;;;;;;;;;13.80;47.20;;;;;;5009364;28;114252;-82
2023/10/16 10:43:48;;;;;;;;;;;13.70;47.60;;;;;;5014104;28;115144;-83
2023/10/16 10:46:22;;;;;;;;;;;13.80;47.80;;;;;;5012194;28;115324;-82
2023/10/16 10:48:49;;;;;;;;;;;13.80;47.50;;;;;;5028775;27;114123;-82
2023/10/16 10:51:16;;;;;;;;;;;13.70;47.60;;;;;;5024425;28;114338;-83
2023/10/16 10:53:53;;;;;;;;;;;13.70;47.60;;;;;;5012878;28;116902;-83
2023/10/16 10:56:21;;;;;;;;;;;13.70;47.50;;;;;;5018070;28;117057;-82
2023/10/16 10:58:48;;;;;;;;;;;13.70;47.80;;;;;;5024561;28;114152;-82
2023/10/16 11:03:46;;;;;;;;;;;13.70;47.50;;;;;;5012694;28;114835;-82
2023/10/16 11:06:20;;;;;;;;;;;13.70;47.60;;;;;;5031786;27;115145;-82
2023/10/16 11:08:50;;;;;;;;;;;13.70;47.60;;;;;;5008793;28;114177;-83
2023/10/16 11:11:17;;;;;;;;;;;13.70;47.60;;;;;;5009123;28;114489;-82
2023/10/16 11:13:47;;;;;;;;;;;13.70;47.50;;;;;;5006516;28;115934;-83
2023/10/16 11:16:15;;;;;;;;;;;13.70;46.60;;;;;;5008628;28;114647;-84
2023/10/16 11:18:58;;;;;;;;;;;13.70;46.80;;;;;;5022771;28;114171;-83
2023/10/16 11:21:25;;;;;;;;;;;13.60;46.20;;;;;;4990789;28;114148;-81
2023/10/16 11:23:55;;;;;;;;;;;13.50;46.70;;;;;;5026334;27;115445;-82
2023/10/16 11:26:26;;;;;;;;;;;13.40;45.50;;;;;;5007079;28;115218;-83
2023/10/16 11:28:54;;;;;;;;;;;13.20;46.50;;;;;;5009378;28;114121;-82
2023/10/16 11:31:21;;;;;;;;;;;13.30;47.00;;;;;;4991168;28;114222;-84
2023/10/16 11:34:01;;;;;;;;;;;13.40;46.50;;;;;;5008634;28;115035;-83
2023/10/16 11:36:29;;;;;;;;;;;13.40;46.50;;;;;;5006886;28;114535;-83
2023/10/16 11:39:06;;;;;;;;;;;13.40;46.10;;;;;;5029865;27;114564;-82
2023/10/16 11:41:33;;;;;;;;;;;13.30;46.30;;;;;;5027574;28;114086;-82
2023/10/16 11:44:16;;;;;;;;;;;13.30;46.50;;;;;;5026836;28;114955;-82
2023/10/16 11:46:46;;;;;;;;;;;13.40;46.70;;;;;;5028823;28;114609;-82
2023/10/16 11:51:45;;;;;;;;;;;13.50;46.40;;;;;;5023034;27;114495;-83
2023/10/16 11:54:18;;;;;;;;;;;13.50;46.40;;;;;;4994450;28;118361;-83
2023/10/16 11:56:47;;;;;;;;;;;13.50;46.60;;;;;;5026310;28;115085;-83
2023/10/16 11:59:15;;;;;;;;;;;13.60;46.50;;;;;;5029886;27;114473;-84
2023/10/16 12:01:44;;;;;;;;;;;13.60;46.70;;;;;;5013246;28;114289;-83
2023/10/16 12:04:29;;;;;;;;;;;13.70;46.40;;;;;;5014698;28;117487;-83
2023/10/16 12:06:58;;;;;;;;;;;13.70;46.10;;;;;;5010677;28;115531;-83
2023/10/16 12:09:27;;;;;;;;;;;13.80;46.40;;;;;;5007760;28;114406;-83
2023/10/16 12:11:55;;;;;;;;;;;14.00;46.50;;;;;;5019832;28;114311;-84
2023/10/16 12:14:23;;;;;;;;;;;14.00;45.40;;;;;;5023192;28;114951;-83
2023/10/16 12:16:52;;;;;;;;;;;13.80;44.80;;;;;;4989891;28;117457;-83
2023/10/16 12:19:19;;;;;;;;;;;13.70;44.80;;;;;;5007420;28;114364;-84
2023/10/16 12:21:52;;;;;;;;;;;13.60;45.40;;;;;;5014092;28;116171;-84
2023/10/16 12:24:23;;;;;;;;;;;13.60;45.20;;;;;;5021982;28;114851;-84
2023/10/16 12:26:52;;;;;;;;;;;13.40;44.60;;;;;;5023735;28;114685;-83
2023/10/16 12:29:19;;;;;;;;;;;13.30;44.80;;;;;;5007666;28;114201;-84
2023/10/16 12:31:48;;;;;;;;;;;13.20;45.40;;;;;;5007852;28;114736;-83
2023/10/16 12:34:17;;;;;;;;;;;13.30;45.20;;;;;;5018308;28;114816;-81
2023/10/16 12:36:49;;;;;;;;;;;13.30;45.60;;;;;;5023776;28;114596;-82
2023/10/16 12:39:16;;;;;;;;;;;13.40;45.40;;;;;;5016125;28;114138;-84
2023/10/16 12:42:06;;;;;;;;;;;13.40;45.60;;;;;;5021566;28;114634;-83
2023/10/16 12:44:34;;;;;;;;;;;13.60;45.60;;;;;;5038558;27;114921;-82
2023/10/16 12:47:01;;;;;;;;;;;13.70;45.60;;;;;;5026532;27;115083;-85
2023/10/16 12:49:28;;;;;;;;;;;13.70;45.20;;;;;;5018371;27;114229;-82
2023/10/16 12:52:00;;;;;;;;;;;13.60;45.50;;;;;;5020913;28;114271;-81
2023/10/16 12:54:27;;;;;;;;;;;13.70;45.40;;;;;;5026064;28;114848;-82
2023/10/16 12:56:57;;;;;;;;;;;13.70;45.70;;;;;;5006554;28;114667;-81
2023/10/16 12:59:27;;;;;;;;;;;13.80;45.60;;;;;;5006401;28;114130;-81
2023/10/16 13:01:54;;;;;;;;;;;13.80;45.20;;;;;;5007540;28;114960;-82
2023/10/16 13:04:24;;;;;;;;;;;13.70;45.30;;;;;;5005556;28;114921;-82
2023/10/16 13:06:52;;;;;;;;;;;13.80;45.40;;;;;;5005404;28;114685;-82
2023/10/16 13:09:19;;;;;;;;;;;13.80;45.60;;;;;;5025665;28;114373;-85
2023/10/16 13:11:46;;;;;;;;;;;13.90;45.40;;;;;;5010680;27;114529;-84
2023/10/16 13:14:14;;;;;;;;;;;13.80;44.80;;;;;;5023312;28;114919;-84
2023/10/16 13:16:41;;;;;;;;;;;13.80;44.70;;;;;;5003698;28;117550;-83
2023/10/16 13:19:11;;;;;;;;;;;13.60;44.10;;;;;;4989144;28;114374;-83
2023/10/16 13:21:41;;;;;;;;;;;13.40;44.50;;;;;;5015724;28;114883;-82
2023/10/16 13:24:13;;;;;;;;;;;13.30;44.30;;;;;;5013919;28;115913;-85
2023/10/16 13:26:40;;;;;;;;;;;13.20;44.70;;;;;;5019454;28;118489;-83
2023/10/16 13:29:12;;;;;;;;;;;13.30;45.10;;;;;;4995982;28;114298;-84
2023/10/16 13:31:46;;;;;;;;;;;13.40;45.20;;;;;;5020831;28;114646;-84
2023/10/16 13:34:17;;;;;;;;;;;13.50;45.50;;;;;;5021280;28;114789;-84
2023/10/16 13:37:04;;;;;;;;;;;13.60;45.10;;;;;;5017574;27;115654;-84
2023/10/16 13:39:38;;;;;;;;;;;13.60;45.20;;;;;;5013084;28;115376;-84
2023/10/16 13:42:10;;;;;;;;;;;13.60;45.50;;;;;;5012460;27;114633;-84
2023/10/16 13:44:37;;;;;;;;;;;13.70;45.60;;;;;;5018930;28;114277;-83
2023/10/16 13:47:08;;;;;;;;;;;13.70;45.50;;;;;;5005826;27;115700;-82
2023/10/16 13:49:40;;;;;;;;;;;13.70;45.70;;;;;;5007632;28;114531;-81
2023/10/16 13:52:07;;;;;;;;;;;13.80;45.50;;;;;;5010298;27;114320;-84
2023/10/16 13:54:38;;;;;;;;;;;13.80;45.50;;;;;;5000053;28;116646;-84
2023/10/16 13:57:07;;;;;;;;;;;13.80;45.50;;;;;;5006425;28;114547;-85
2023/10/16 13:59:34;;;;;;;;;;;13.80;45.40;;;;;;5007411;28;114319;-84
2023/10/16 14:02:02;;;;;;;;;;;13.80;45.10;;;;;;5014047;28;114846;-84
2023/10/16 14:04:33;;;;;;;;;;;13.80;45.50;;;;;;4999020;28;116720;-85
2023/10/16 14:07:07;;;;;;;;;;;13.90;45.70;;;;;;5008403;28;114804;-84
2023/10/16 14:09:35;;;;;;;;;;;14.00;45.70;;;;;;5022966;28;114545;-84
2023/10/16 14:12:03;;;;;;;;;;;14.00;45.50;;;;;;5008345;28;114400;-84
2023/10/16 14:14:33;;;;;;;;;;;14.00;45.70;;;;;;5011632;28;114875;-84
2023/10/16 14:17:16;;;;;;;;;;;14.00;45.10;;;;;;4988436;28;117046;-84
2023/10/16 14:19:50;;;;;;;;;;;13.90;45.40;;;;;;5000277;28;114287;-85
2023/10/16 14:22:19;;;;;;;;;;;13.80;45.40;;;;;;5014148;27;116135;-84
2023/10/16 14:24:46;;;;;;;;;;;13.90;45.90;;;;;;5006440;28;114843;-84
2023/10/16 14:27:14;;;;;;;;;;;13.90;45.70;;;;;;5022350;28;115858;-85
2023/10/16 14:29:45;;;;;;;;;;;14.00;45.90;;;;;;5008840;28;114091;-81
2023/10/16 14:32:13;;;;;;;;;;;14.10;46.00;;;;;;4962963;28;114207;-83
2023/10/16 14:34:41;;;;;;;;;;;14.10;45.50;;;;;;5009956;28;114924;-84
2023/10/16 14:37:08;;;;;;;;;;;14.10;45.80;;;;;;5028387;28;114784;-82
2023/10/16 14:39:35;;;;;;;;;;;14.10;46.00;;;;;;5027244;28;114278;-84
2023/10/16 14:42:04;;;;;;;;;;;14.10;46.00;;;;;;5028905;27;114296;-85
2023/10/16 14:44:31;;;;;;;;;;;14.20;45.80;;;;;;5026613;28;115042;-83
2023/10/16 14:46:59;;;;;;;;;;;14.10;45.80;;;;;;5028260;28;114524;-84
2023/10/16 14:49:27;;;;;;;;;;;14.00;45.80;;;;;;5027728;28;115473;-85
2023/10/16 14:51:54;;;;;;;;;;;14.00;45.70;;;;;;5010663;28;114445;-83
2023/10/16 14:54:22;;;;;;;;;;;14.00;45.90;;;;;;5026710;28;114810;-84
2023/10/16 14:56:51;;;;;;;;;;;13.90;45.70;;;;;;4993682;28;116724;-84
2023/10/16 14:59:27;;;;;;;;;;;13.90;45.90;;;;;;5016264;28;114170;-84
2023/10/16 15:01:54;;;;;;;;;;;14.00;46.20;;;;;;5018238;28;114630;-83
2023/10/16 15:04:23;;;;;;;;;;;13.90;46.30;;;;;;5014745;28;115745;-82
2023/10/16 15:07:04;;;;;;;;;;;14.00;46.40;;;;;;5017873;28;115228;-84
2023/10/16 15:09:32;;;;;;;;;;;14.00;46.30;;;;;;5015624;28;114738;-83
2023/10/16 15:12:07;;;;;;;;;;;14.00;46.40;;;;;;5012308;28;114443;-83
2023/10/16 15:14:35;;;;;;;;;;;14.10;46.40;;;;;;5007322;28;115212;-83
2023/10/16 15:17:02;;;;;;;;;;;14.00;46.40;;;;;;5019813;28;114792;-83
2023/10/16 15:19:32;;;;;;;;;;;14.00;46.50;;;;;;5027229;28;114583;-83
2023/10/16 15:21:59;;;;;;;;;;;14.00;46.50;;;;;;5011391;28;114349;-83
2023/10/16 15:24:26;;;;;;;;;;;14.10;46.70;;;;;;5027784;28;115165;-83
2023/10/16 15:26:54;;;;;;;;;;;14.10;46.70;;;;;;5027347;28;114478;-83
2023/10/16 15:29:21;;;;;;;;;;;14.20;46.80;;;;;;5027826;27;114216;-84
2023/10/16 15:31:49;;;;;;;;;;;14.10;46.70;;;;;;5010157;28;114399;-82
2023/10/16 15:34:17;;;;;;;;;;;14.20;46.60;;;;;;5008840;28;118051;-82
2023/10/16 15:36:45;;;;;;;;;;;14.10;46.70;;;;;;5027707;28;115046;-83
2023/10/16 15:39:15;;;;;;;;;;;14.10;46.70;;;;;;5008606;28;114356;-84
2023/10/16 15:41:44;;;;;;;;;;;14.10;46.70;;;;;;4992934;28;114440;-84
2023/10/16 15:44:12;;;;;;;;;;;14.10;46.90;;;;;;5005938;28;117868;-84
2023/10/16 15:46:40;;;;;;;;;;;14.10;46.80;;;;;;4989035;28;115236;-84
2023/10/16 15:49:08;;;;;;;;;;;14.10;46.80;;;;;;5006730;28;114643;-84
2023/10/16 15:51:36;;;;;;;;;;;14.20;46.90;;;;;;5006517;28;114163;-84
2023/10/16 15:54:04;;;;;;;;;;;14.20;46.90;;;;;;5020203;28;115388;-83
2023/10/16 15:56:32;;;;;;;;;;;14.10;46.90;;;;;;5009198;28;115354;-84
2023/10/16 15:59:00;;;;;;;;;;;14.20;47.00;;;;;;5006897;28;114186;-82
2023/10/16 16:01:27;;;;;;;;;;;14.20;46.90;;;;;;5012123;28;114528;-84
2023/10/16 16:03:57;;;;;;;;;;;14.10;46.90;;;;;;5007264;28;115055;-83
2023/10/16 16:06:32;;;;;;;;;;;14.10;46.90;;;;;;5014214;28;115142;-84
2023/10/16 16:09:00;;;;;;;;;;;14.10;46.60;;;;;;5010567;28;114330;-82
2023/10/16 16:11:28;;;;;;;;;;;14.00;46.80;;;;;;5018516;27;114483;-82
2023/10/16 16:13:56;;;;;;;;;;;14.00;46.90;;;;;;5020346;28;117685;-82